Time;durP1;ratioP1;P1;durP2;ratioP2;P2;SDS_P1;SDS_P2;PMS_P1;PMS_P2;Temp;Humidity;BMP_temperature;BMP_pressure;BME280_temperature;BME280_humidity;BME280_pressure;Samples;Min_cycle;Max_cycle;Signal;HPM_P1;HPM_P2
2022/10/30 00:01:46;;;;;;;6.47;5.00;;;;;;;;;;5046785;28;20349;-66
2022/10/30 00:04:13;;;;;;;7.87;4.20;;;;;;;;;;5047069;28;20021;-66
2022/10/30 00:06:40;;;;;;;4.80;3.03;;;;;;;;;;5047140;28;20025;-68
2022/10/30 00:09:06;;;;;;;8.33;4.30;;;;;;;;;;5051805;28;20036;-67
2022/10/30 00:11:33;;;;;;;6.80;4.10;;;;;;;;;;5055886;28;20031;-71
2022/10/30 00:14:00;;;;;;;5.37;3.47;;;;;;;;;;5056110;28;20025;-69
2022/10/30 00:16:26;;;;;;;4.47;3.27;;;;;;;;;;5055863;28;20060;-68
2022/10/30 00:18:53;;;;;;;7.87;4.20;;;;;;;;;;5055499;28;20029;-69
2022/10/30 00:21:19;;;;;;;6.33;3.57;;;;;;;;;;5052338;28;20530;-67
2022/10/30 00:23:47;;;;;;;4.40;3.57;;;;;;;;;;5050801;28;20053;-69
2022/10/30 00:26:14;;;;;;;5.77;4.20;;;;;;;;;;5050842;28;20071;-69
2022/10/30 00:28:43;;;;;;;6.27;4.27;;;;;;;;;;5049689;28;20086;-68
2022/10/30 00:31:10;;;;;;;6.67;3.13;;;;;;;;;;5052408;28;20079;-71
2022/10/30 00:33:37;;;;;;;6.50;4.30;;;;;;;;;;5055676;28;20087;-70
2022/10/30 00:36:04;;;;;;;7.10;4.07;;;;;;;;;;5054616;28;20484;-71
2022/10/30 00:38:31;;;;;;;7.30;5.17;;;;;;;;;;5055627;28;20036;-69
2022/10/30 00:40:58;;;;;;;5.47;4.37;;;;;;;;;;5055360;28;20017;-71
2022/10/30 00:43:33;;;;;;;9.57;5.00;;;;;;;;;;5052893;28;20063;-69
2022/10/30 00:46:02;;;;;;;4.53;3.43;;;;;;;;;;5050489;28;20032;-70
2022/10/30 00:48:29;;;;;;;5.87;3.53;;;;;;;;;;5038205;28;20025;-69
2022/10/30 00:51:03;;;;;;;6.13;3.90;;;;;;;;;;5030456;28;20044;-67
2022/10/30 00:53:41;;;;;;;7.95;3.60;;;;;;;;;;5032173;28;20083;-68
2022/10/30 00:56:13;;;;;;;5.30;3.80;;;;;;;;;;5052735;28;20017;-67
2022/10/30 00:58:51;;;;;;;9.70;4.40;;;;;;;;;;5055205;28;20468;-69
2022/10/30 01:01:24;;;;;;;4.83;3.73;;;;;;;;;;5037648;28;20018;-67
2022/10/30 01:03:56;;;;;;;5.23;3.83;;;;;;;;;;5034812;28;20104;-66
2022/10/30 01:06:24;;;;;;;7.60;3.80;;;;;;;;;;5031140;28;20033;-70
2022/10/30 01:08:52;;;;;;;5.33;2.70;;;;;;;;;;5029957;28;20152;-66
2022/10/30 01:11:18;;;;;;;4.57;3.57;;;;;;;;;;5030078;28;20055;-71
2022/10/30 01:13:46;;;;;;;5.20;3.93;;;;;;;;;;5030075;28;20057;-68
2022/10/30 01:16:31;;;;;;;5.87;4.30;;;;;;;;;;5032653;28;20468;-70
2022/10/30 01:18:58;;;;;;;8.27;5.30;;;;;;;;;;5034639;28;20029;-72
2022/10/30 01:21:24;;;;;;;7.73;4.23;;;;;;;;;;5034538;28;20022;-69
2022/10/30 01:23:51;;;;;;;6.17;3.77;;;;;;;;;;5034888;28;20499;-70
2022/10/30 01:26:21;;;;;;;5.43;3.53;;;;;;;;;;5034970;28;20490;-70
2022/10/30 01:28:48;;;;;;;17.40;3.97;;;;;;;;;;5030954;28;20033;-68
2022/10/30 01:31:37;;;;;;;4.57;3.30;;;;;;;;;;5029730;28;20032;-70
2022/10/30 01:34:10;;;;;;;6.83;3.97;;;;;;;;;;4992542;28;20033;-69
2022/10/30 01:36:49;;;;;;;4.57;2.97;;;;;;;;;;5041185;28;20452;-70
2022/10/30 01:39:23;;;;;;;4.40;2.47;;;;;;;;;;5053649;28;20039;-68
2022/10/30 01:41:49;;;;;;;3.60;2.50;;;;;;;;;;5054495;28;20055;-71
2022/10/30 01:44:22;;;;;;;3.33;1.97;;;;;;;;;;5053432;28;20108;-69
2022/10/30 01:46:51;;;;;;;3.40;2.50;;;;;;;;;;5054341;28;20013;-69
2022/10/30 01:49:21;;;;;;;2.30;1.80;;;;;;;;;;5054506;28;20391;-68
2022/10/30 01:51:59;;;;;;;2.77;2.00;;;;;;;;;;5049072;28;20029;-70
2022/10/30 01:54:44;;;;;;;3.10;1.93;;;;;;;;;;5048707;28;20032;-68
2022/10/30 01:57:20;;;;;;;2.80;1.80;;;;;;;;;;5048818;28;20590;-72
2022/10/30 01:59:51;;;;;;;2.43;1.90;;;;;;;;;;5049049;28;20036;-68
2022/10/30 02:02:17;;;;;;;2.37;1.77;;;;;;;;;;5053171;28;20361;-66
2022/10/30 02:04:44;;;;;;;2.10;1.50;;;;;;;;;;5053821;28;20487;-67
2022/10/30 02:07:11;;;;;;;2.07;1.60;;;;;;;;;;5052990;28;20465;-69
2022/10/30 02:09:39;;;;;;;4.90;2.30;;;;;;;;;;5053931;28;20021;-71
2022/10/30 02:12:06;;;;;;;6.80;1.80;;;;;;;;;;5048463;28;20013;-71
2022/10/30 02:14:36;;;;;;;1.97;1.50;;;;;;;;;;5029217;28;20600;-70
2022/10/30 02:17:04;;;;;;;2.30;1.47;;;;;;;;;;5028757;28;20471;-71
2022/10/30 02:19:30;;;;;;;1.90;1.40;;;;;;;;;;5028807;28;20452;-68
2022/10/30 02:21:57;;;;;;;1.67;1.30;;;;;;;;;;5028589;28;20025;-70
2022/10/30 02:24:24;;;;;;;1.43;1.13;;;;;;;;;;5039030;28;20021;-70
2022/10/30 02:26:50;;;;;;;3.13;2.03;;;;;;;;;;5053534;28;20040;-66
2022/10/30 02:29:19;;;;;;;3.93;2.17;;;;;;;;;;5052598;28;20033;-68
2022/10/30 02:31:46;;;;;;;2.53;1.60;;;;;;;;;;5052556;28;20494;-65
2022/10/30 02:34:13;;;;;;;3.40;2.43;;;;;;;;;;5053123;28;20021;-67
2022/10/30 02:36:39;;;;;;;2.67;1.83;;;;;;;;;;5047615;28;20065;-68
2022/10/30 02:39:06;;;;;;;2.33;1.57;;;;;;;;;;5048084;28;20029;-67
2022/10/30 02:41:33;;;;;;;2.77;1.10;;;;;;;;;;5047767;28;20086;-66
2022/10/30 02:44:00;;;;;;;1.93;1.37;;;;;;;;;;5047925;28;20044;-69
2022/10/30 02:46:27;;;;;;;2.93;1.20;;;;;;;;;;5051589;28;20029;-68
2022/10/30 02:48:54;;;;;;;0.83;0.70;;;;;;;;;;5052955;28;20057;-69
2022/10/30 02:51:20;;;;;;;1.43;1.00;;;;;;;;;;5052717;28;20037;-69
2022/10/30 02:53:47;;;;;;;1.60;1.23;;;;;;;;;;5052857;28;20490;-68
2022/10/30 02:56:14;;;;;;;2.33;1.70;;;;;;;;;;5052579;28;20045;-69
2022/10/30 02:58:41;;;;;;;1.50;1.20;;;;;;;;;;5047798;28;20017;-67
2022/10/30 03:01:15;;;;;;;2.00;1.43;;;;;;;;;;5048004;28;20075;-70
2022/10/30 03:03:45;;;;;;;1.33;1.10;;;;;;;;;;5047601;28;20545;-70
2022/10/30 03:06:14;;;;;;;3.63;1.80;;;;;;;;;;5047533;28;20025;-67
2022/10/30 03:08:41;;;;;;;4.00;1.80;;;;;;;;;;5051077;28;20563;-66
2022/10/30 03:11:12;;;;;;;2.53;1.73;;;;;;;;;;5052168;28;20506;-65
2022/10/30 03:13:42;;;;;;;2.40;1.87;;;;;;;;;;5032366;28;20031;-65
2022/10/30 03:16:12;;;;;;;11.47;4.97;;;;;;;;;;5032982;28;20033;-65
2022/10/30 03:18:39;;;;;;;5.80;3.57;;;;;;;;;;5040695;28;20025;-65
2022/10/30 03:21:06;;;;;;;3.73;2.57;;;;;;;;;;5048219;28;20075;-65
2022/10/30 03:23:33;;;;;;;7.37;3.33;;;;;;;;;;5047660;28;20091;-65
2022/10/30 03:26:00;;;;;;;6.93;2.13;;;;;;;;;;5047336;28;20017;-65
2022/10/30 03:28:29;;;;;;;2.60;2.17;;;;;;;;;;5045329;28;20033;-65
2022/10/30 03:30:59;;;;;;;2.70;2.03;;;;;;;;;;5051229;28;20049;-65
2022/10/30 03:33:25;;;;;;;3.40;2.30;;;;;;;;;;5052482;28;20412;-65
2022/10/30 03:35:52;;;;;;;2.70;2.07;;;;;;;;;;5051958;28;20079;-65
2022/10/30 03:38:19;;;;;;;3.17;2.17;;;;;;;;;;5052507;28;20029;-65
2022/10/30 03:40:45;;;;;;;3.23;2.40;;;;;;;;;;5052514;28;20512;-65
2022/10/30 03:43:12;;;;;;;3.23;2.20;;;;;;;;;;5048500;28;20494;-65
2022/10/30 03:45:39;;;;;;;2.37;1.70;;;;;;;;;;5046606;28;20378;-65
2022/10/30 03:48:06;;;;;;;2.37;1.67;;;;;;;;;;5047294;28;20834;-65
2022/10/30 03:50:33;;;;;;;3.10;1.77;;;;;;;;;;5047233;28;20136;-65
2022/10/30 03:52:59;;;;;;;2.77;2.23;;;;;;;;;;5050316;28;20025;-65
2022/10/30 03:55:26;;;;;;;2.80;1.90;;;;;;;;;;5051799;28;20025;-65
2022/10/30 03:57:53;;;;;;;3.33;2.57;;;;;;;;;;5052126;28;20029;-65
2022/10/30 04:00:19;;;;;;;3.90;3.00;;;;;;;;;;5051910;28;20518;-66
2022/10/30 04:02:50;;;;;;;4.17;2.53;;;;;;;;;;5051474;28;20021;-65
2022/10/30 04:05:18;;;;;;;3.33;2.43;;;;;;;;;;5048817;28;20401;-65
2022/10/30 04:07:44;;;;;;;2.50;1.93;;;;;;;;;;5047232;28;20061;-65
2022/10/30 04:10:12;;;;;;;4.77;2.60;;;;;;;;;;5047114;28;20045;-65
2022/10/30 04:12:39;;;;;;;3.23;2.33;;;;;;;;;;5046796;28;20029;-65
2022/10/30 04:15:07;;;;;;;4.97;3.43;;;;;;;;;;5049772;28;20024;-65
2022/10/30 04:17:34;;;;;;;3.83;2.57;;;;;;;;;;5051751;28;20029;-65
2022/10/30 04:20:00;;;;;;;3.93;2.40;;;;;;;;;;5051605;28;20074;-65
2022/10/30 04:22:27;;;;;;;2.43;2.00;;;;;;;;;;5051419;28;20032;-65
2022/10/30 04:24:54;;;;;;;3.20;2.20;;;;;;;;;;5052141;28;20027;-65
2022/10/30 04:27:20;;;;;;;6.40;2.77;;;;;;;;;;5048903;28;20028;-65
2022/10/30 04:29:47;;;;;;;7.07;3.20;;;;;;;;;;5046874;28;20025;-65
2022/10/30 04:32:14;;;;;;;3.27;2.40;;;;;;;;;;5046663;28;20086;-65
2022/10/30 04:34:40;;;;;;;4.00;3.23;;;;;;;;;;5046968;28;20483;-64
2022/10/30 04:37:07;;;;;;;3.77;2.47;;;;;;;;;;5048214;28;20075;-65
2022/10/30 04:39:34;;;;;;;4.30;3.20;;;;;;;;;;5051776;28;20547;-64
2022/10/30 04:42:01;;;;;;;3.83;2.27;;;;;;;;;;5051964;28;20021;-65
2022/10/30 04:44:27;;;;;;;6.80;3.40;;;;;;;;;;5051455;28;20040;-65
2022/10/30 04:46:54;;;;;;;20.73;3.63;;;;;;;;;;5051916;28;20024;-65
2022/10/30 04:49:21;;;;;;;5.60;3.03;;;;;;;;;;5049517;28;20125;-64
2022/10/30 04:51:47;;;;;;;3.97;2.57;;;;;;;;;;5046632;28;20419;-65
2022/10/30 04:54:14;;;;;;;2.87;2.27;;;;;;;;;;5047013;28;20024;-64
2022/10/30 04:56:40;;;;;;;5.97;2.23;;;;;;;;;;5049974;28;20037;-65
2022/10/30 04:59:07;;;;;;;3.07;2.20;;;;;;;;;;5051828;28;20063;-64
2022/10/30 05:01:34;;;;;;;4.73;2.50;;;;;;;;;;5055373;28;20021;-64
2022/10/30 05:04:01;;;;;;;3.70;2.10;;;;;;;;;;5055353;28;20028;-64
2022/10/30 05:06:29;;;;;;;5.83;2.80;;;;;;;;;;5054392;28;20087;-69
2022/10/30 05:08:56;;;;;;;5.57;2.63;;;;;;;;;;5054963;28;20083;-67
2022/10/30 05:11:23;;;;;;;2.83;2.17;;;;;;;;;;5053042;28;20088;-66
2022/10/30 05:13:50;;;;;;;21.03;3.17;;;;;;;;;;5049874;28;20115;-70
2022/10/30 05:16:16;;;;;;;20.80;3.10;;;;;;;;;;5049596;28;20025;-67
2022/10/30 05:18:43;;;;;;;2.37;1.87;;;;;;;;;;5049922;28;20017;-67
2022/10/30 05:21:10;;;;;;;2.87;2.20;;;;;;;;;;5050644;28;20476;-67
2022/10/30 05:23:37;;;;;;;4.50;2.90;;;;;;;;;;5054788;28;20025;-68
2022/10/30 05:26:04;;;;;;;3.20;2.03;;;;;;;;;;5054697;28;20500;-65
2022/10/30 05:28:30;;;;;;;1.83;1.43;;;;;;;;;;5054267;28;20104;-66
2022/10/30 05:30:57;;;;;;;3.43;2.27;;;;;;;;;;5054393;28;20464;-64
2022/10/30 05:33:23;;;;;;;13.97;2.77;;;;;;;;;;5053842;28;20480;-65
2022/10/30 05:35:50;;;;;;;4.00;2.50;;;;;;;;;;5049445;28;20464;-67
2022/10/30 05:38:17;;;;;;;3.53;1.90;;;;;;;;;;5049386;28;20039;-66
2022/10/30 05:40:46;;;;;;;5.90;1.90;;;;;;;;;;5049194;28;20696;-66
2022/10/30 05:43:12;;;;;;;2.83;2.13;;;;;;;;;;5049532;28;20056;-69
2022/10/30 05:45:39;;;;;;;3.67;2.07;;;;;;;;;;5054312;28;20051;-66
2022/10/30 05:48:06;;;;;;;5.43;3.30;;;;;;;;;;5053786;28;20017;-67
2022/10/30 05:50:33;;;;;;;3.33;2.20;;;;;;;;;;5054314;28;20017;-69
2022/10/30 05:53:01;;;;;;;3.77;2.57;;;;;;;;;;5043679;28;20080;-66
2022/10/30 05:55:28;;;;;;;5.57;1.93;;;;;;;;;;5033973;28;20053;-65
2022/10/30 05:57:56;;;;;;;5.17;2.53;;;;;;;;;;5028694;28;20507;-66
2022/10/30 06:00:22;;;;;;;2.30;1.83;;;;;;;;;;5028678;28;20698;-65
2022/10/30 06:02:49;;;;;;;1.50;0.80;;;;;;;;;;5028394;28;20397;-66
2022/10/30 06:05:16;;;;;;;2.57;1.83;;;;;;;;;;5042342;28;20476;-65
2022/10/30 06:07:42;;;;;;;3.17;2.30;;;;;;;;;;5052917;28;20089;-65
2022/10/30 06:10:09;;;;;;;1.57;1.37;;;;;;;;;;5053709;28;20116;-65
2022/10/30 06:12:36;;;;;;;2.60;1.90;;;;;;;;;;5053739;28;20025;-66
2022/10/30 06:15:02;;;;;;;2.60;1.83;;;;;;;;;;5053669;28;20028;-65
2022/10/30 06:17:30;;;;;;;2.77;2.07;;;;;;;;;;5053337;28;20439;-65
2022/10/30 06:19:57;;;;;;;1.60;1.50;;;;;;;;;;5048180;28;20032;-67
2022/10/30 06:22:24;;;;;;;2.33;1.77;;;;;;;;;;5048160;28;20371;-67
2022/10/30 06:24:50;;;;;;;1.83;1.37;;;;;;;;;;5048269;28;20028;-65
2022/10/30 06:27:17;;;;;;;13.77;2.77;;;;;;;;;;5047868;28;20428;-65
2022/10/30 06:29:44;;;;;;;4.53;1.73;;;;;;;;;;5052525;28;20059;-65
2022/10/30 06:32:10;;;;;;;1.37;1.27;;;;;;;;;;5053481;28;20021;-65
2022/10/30 06:34:37;;;;;;;4.17;1.57;;;;;;;;;;5053293;28;20036;-65
2022/10/30 06:37:04;;;;;;;2.57;1.77;;;;;;;;;;5053048;28;20586;-65
2022/10/30 06:39:30;;;;;;;1.57;1.30;;;;;;;;;;5052537;28;20025;-65
2022/10/30 06:41:57;;;;;;;1.93;1.40;;;;;;;;;;5048604;28;20372;-65
2022/10/30 06:44:23;;;;;;;1.23;1.13;;;;;;;;;;5047776;28;20040;-65
2022/10/30 06:46:52;;;;;;;2.13;1.83;;;;;;;;;;5047794;28;20025;-65
2022/10/30 06:49:19;;;;;;;2.80;1.83;;;;;;;;;;5047764;28;20036;-65
2022/10/30 06:51:46;;;;;;;3.37;2.13;;;;;;;;;;5051026;28;20454;-65
2022/10/30 06:54:13;;;;;;;1.97;1.63;;;;;;;;;;5052580;28;20035;-65
2022/10/30 06:56:40;;;;;;;1.27;1.10;;;;;;;;;;5052413;28;20033;-65
2022/10/30 06:59:07;;;;;;;2.17;1.60;;;;;;;;;;5052796;28;20033;-65
2022/10/30 07:01:33;;;;;;;1.37;1.20;;;;;;;;;;5052924;28;20040;-64
2022/10/30 07:04:00;;;;;;;4.90;2.03;;;;;;;;;;5048066;28;20108;-64
2022/10/30 07:06:27;;;;;;;7.40;1.73;;;;;;;;;;5047170;28;20032;-65
2022/10/30 07:08:53;;;;;;;5.83;1.63;;;;;;;;;;5047315;28;20089;-62
2022/10/30 07:11:20;;;;;;;1.47;1.10;;;;;;;;;;5047261;28;20025;-63
2022/10/30 07:13:47;;;;;;;1.47;1.17;;;;;;;;;;5050115;28;20032;-62
2022/10/30 07:16:13;;;;;;;2.37;1.63;;;;;;;;;;5052190;28;20057;-62
2022/10/30 07:18:40;;;;;;;1.00;0.90;;;;;;;;;;5052372;28;20024;-62
2022/10/30 07:21:06;;;;;;;2.23;1.53;;;;;;;;;;5052456;28;20472;-62
2022/10/30 07:23:33;;;;;;;2.73;1.80;;;;;;;;;;5052258;28;20025;-62
2022/10/30 07:26:00;;;;;;;0.87;0.77;;;;;;;;;;5049277;28;20021;-64
2022/10/30 07:28:26;;;;;;;1.67;1.37;;;;;;;;;;5046490;28;20037;-63
2022/10/30 07:30:53;;;;;;;1.40;1.20;;;;;;;;;;5046820;28;20074;-63
2022/10/30 07:33:20;;;;;;;1.93;1.40;;;;;;;;;;5047082;28;20033;-62
2022/10/30 07:35:47;;;;;;;1.00;0.87;;;;;;;;;;5049572;28;20035;-63
2022/10/30 07:38:14;;;;;;;2.33;1.40;;;;;;;;;;5052358;28;20560;-63
2022/10/30 07:40:40;;;;;;;1.97;1.40;;;;;;;;;;5051963;28;20075;-62
2022/10/30 07:43:09;;;;;;;1.97;1.40;;;;;;;;;;5052138;28;20028;-62
2022/10/30 07:45:35;;;;;;;0.50;0.50;;;;;;;;;;5051781;28;20480;-64
2022/10/30 07:48:02;;;;;;;1.03;0.83;;;;;;;;;;5049447;28;20551;-62
2022/10/30 07:50:29;;;;;;;1.93;1.50;;;;;;;;;;5046890;28;20029;-63
2022/10/30 07:52:56;;;;;;;1.53;0.90;;;;;;;;;;5046414;28;20113;-63
2022/10/30 07:55:23;;;;;;;0.97;0.77;;;;;;;;;;5046870;28;20060;-63
2022/10/30 07:57:50;;;;;;;1.57;1.00;;;;;;;;;;5048652;28;20029;-62
2022/10/30 08:00:17;;;;;;;1.17;0.87;;;;;;;;;;5052050;28;20027;-63
2022/10/30 08:02:43;;;;;;;1.47;1.13;;;;;;;;;;5051478;28;20453;-63
2022/10/30 08:05:10;;;;;;;2.27;1.70;;;;;;;;;;5051326;28;20492;-63
2022/10/30 08:07:38;;;;;;;1.23;0.90;;;;;;;;;;5051842;28;20184;-62
2022/10/30 08:10:06;;;;;;;1.70;1.13;;;;;;;;;;5049749;28;20422;-63
2022/10/30 08:12:33;;;;;;;1.47;1.23;;;;;;;;;;5046812;28;20021;-62
2022/10/30 08:15:00;;;;;;;2.43;1.33;;;;;;;;;;5045746;28;20119;-63
2022/10/30 08:17:27;;;;;;;7.27;1.33;;;;;;;;;;5046645;28;20033;-63
2022/10/30 08:19:55;;;;;;;0.93;0.83;;;;;;;;;;5047565;28;20487;-64
2022/10/30 08:22:22;;;;;;;1.27;0.93;;;;;;;;;;5051971;28;20535;-62
2022/10/30 08:24:49;;;;;;;1.30;1.00;;;;;;;;;;5051961;28;20071;-62
2022/10/30 08:27:15;;;;;;;0.87;0.77;;;;;;;;;;5051612;28;20033;-62
2022/10/30 08:29:42;;;;;;;0.77;0.70;;;;;;;;;;5053381;28;20028;-62
2022/10/30 08:32:09;;;;;;;1.97;1.20;;;;;;;;;;5053817;28;20092;-63
2022/10/30 08:34:35;;;;;;;1.03;0.90;;;;;;;;;;5049364;28;20024;-63
2022/10/30 08:37:02;;;;;;;1.50;1.00;;;;;;;;;;5049748;28;20539;-62
2022/10/30 08:39:29;;;;;;;1.23;1.13;;;;;;;;;;5050252;28;20744;-63
2022/10/30 08:41:57;;;;;;;1.90;1.17;;;;;;;;;;5051078;28;20024;-62
2022/10/30 08:44:24;;;;;;;1.87;1.30;;;;;;;;;;5055101;28;20028;-63
2022/10/30 08:46:51;;;;;;;1.00;0.90;;;;;;;;;;5055266;28;20104;-62
2022/10/30 08:49:17;;;;;;;1.53;1.03;;;;;;;;;;5055273;28;20025;-62
2022/10/30 08:51:44;;;;;;;0.83;0.80;;;;;;;;;;5054800;28;20036;-62
2022/10/30 08:54:11;;;;;;;4.93;1.80;;;;;;;;;;5053984;28;20029;-62
2022/10/30 08:56:38;;;;;;;6.43;1.00;;;;;;;;;;5049389;28;20072;-63
2022/10/30 08:59:04;;;;;;;2.27;1.07;;;;;;;;;;5049951;28;20372;-62
2022/10/30 09:01:31;;;;;;;3.13;1.37;;;;;;;;;;5049829;28;20476;-62
2022/10/30 09:03:58;;;;;;;1.30;1.07;;;;;;;;;;5050116;28;20103;-63
2022/10/30 09:06:24;;;;;;;0.63;0.63;;;;;;;;;;5055088;28;20483;-62
2022/10/30 09:08:51;;;;;;;4.43;1.07;;;;;;;;;;5054544;28;20028;-62
2022/10/30 09:11:18;;;;;;;1.00;0.87;;;;;;;;;;5054839;28;21105;-62
2022/10/30 09:13:44;;;;;;;1.77;1.13;;;;;;;;;;5054854;28;20021;-62
2022/10/30 09:16:11;;;;;;;1.53;1.13;;;;;;;;;;5054315;28;20503;-62
2022/10/30 09:18:38;;;;;;;0.97;0.83;;;;;;;;;;5049482;28;20024;-62
2022/10/30 09:21:04;;;;;;;1.63;1.03;;;;;;;;;;5049194;28;20083;-62
2022/10/30 09:23:31;;;;;;;1.27;1.00;;;;;;;;;;5049204;28;20033;-62
2022/10/30 09:25:58;;;;;;;1.50;1.10;;;;;;;;;;5049256;28;20496;-62
2022/10/30 09:28:24;;;;;;;2.50;1.60;;;;;;;;;;5054481;28;20036;-62
2022/10/30 09:30:51;;;;;;;1.37;0.90;;;;;;;;;;5054445;28;20120;-62
2022/10/30 09:33:18;;;;;;;2.37;1.67;;;;;;;;;;5054317;28;20029;-62
2022/10/30 09:35:45;;;;;;;1.20;0.93;;;;;;;;;;5054473;28;20488;-62
2022/10/30 09:38:11;;;;;;;1.70;1.10;;;;;;;;;;5054345;28;20045;-62
2022/10/30 09:40:41;;;;;;;4.20;1.70;;;;;;;;;;5048712;28;20048;-62
2022/10/30 09:43:15;;;;;;;0.70;0.67;;;;;;;;;;5048990;28;20025;-62
2022/10/30 09:45:52;;;;;;;0.47;0.47;;;;;;;;;;5048167;28;20028;-62
2022/10/30 09:48:21;;;;;;;1.23;0.80;;;;;;;;;;5048952;28;20068;-62
2022/10/30 09:50:56;;;;;;;1.13;1.03;;;;;;;;;;5054308;28;20071;-63
2022/10/30 09:53:27;;;;;;;1.95;1.30;;;;;;;;;;5054088;28;20045;-62
2022/10/30 09:56:03;;;;;;;0.77;0.77;;;;;;;;;;5054091;28;20044;-63
2022/10/30 09:58:38;;;;;;;1.70;1.43;;;;;;;;;;5053934;28;20029;-62
2022/10/30 10:01:14;;;;;;;0.70;0.70;;;;;;;;;;5052536;28;20762;-62
2022/10/30 10:04:07;;;;;;;1.63;1.23;;;;;;;;;;5048602;28;20025;-62
2022/10/30 10:06:34;;;;;;;1.87;1.57;;;;;;;;;;5025078;28;20527;-62
2022/10/30 10:09:04;;;;;;;1.20;1.10;;;;;;;;;;5047993;28;20024;-62
2022/10/30 10:11:33;;;;;;;1.63;1.47;;;;;;;;;;5049753;28;20064;-62
2022/10/30 10:14:09;;;;;;;1.57;1.23;;;;;;;;;;5053793;28;20035;-62
2022/10/30 10:16:38;;;;;;;2.40;1.27;;;;;;;;;;5053618;28;20025;-62
2022/10/30 10:19:16;;;;;;;1.50;0.80;;;;;;;;;;5053526;28;20051;-62
2022/10/30 10:21:44;;;;;;;0.70;0.63;;;;;;;;;;5052995;28;20087;-62
2022/10/30 10:24:19;;;;;;;1.03;0.93;;;;;;;;;;5050541;28;20258;-62
2022/10/30 10:26:46;;;;;;;;;;;;;;;;;;5048696;28;20075;-62
2022/10/30 10:29:15;;;;;;;1.23;1.00;;;;;;;;;;5048241;28;20017;-62
2022/10/30 10:31:42;;;;;;;4.10;1.70;;;;;;;;;;5048069;28;20075;-62
2022/10/30 10:34:17;;;;;;;2.17;1.70;;;;;;;;;;5050549;28;20066;-62
2022/10/30 10:36:56;;;;;;;1.77;1.07;;;;;;;;;;5053159;28;20037;-62
2022/10/30 10:39:29;;;;;;;0.97;0.73;;;;;;;;;;5053378;28;20021;-62
2022/10/30 10:42:04;;;;;;;2.23;1.40;;;;;;;;;;5053287;28;20045;-62
2022/10/30 10:44:30;;;;;;;;;;;;;;;;;;5052885;28;20472;-62
2022/10/30 10:47:01;;;;;;;2.87;1.17;;;;;;;;;;5048818;28;19904;-62
2022/10/30 10:49:33;;;;;;;0.43;0.43;;;;;;;;;;5047736;28;20029;-62
2022/10/30 10:52:23;;;;;;;1.10;0.87;;;;;;;;;;5047014;28;20086;-62
2022/10/30 10:54:59;;;;;;;1.43;1.17;;;;;;;;;;5039751;28;20488;-62
2022/10/30 10:57:25;;;;;;;;;;;;;;;;;;5052778;28;20378;-62
2022/10/30 10:59:54;;;;;;;0.70;0.70;;;;;;;;;;5052962;28;19905;-62
2022/10/30 11:02:26;;;;;;;1.57;0.93;;;;;;;;;;5052901;28;20029;-62
2022/10/30 11:04:55;;;;;;;0.77;0.70;;;;;;;;;;5052599;28;20660;-63
2022/10/30 11:07:23;;;;;;;1.27;1.10;;;;;;;;;;5052672;28;20277;-62
2022/10/30 11:09:52;;;;;;;2.73;1.93;;;;;;;;;;5046967;28;20025;-62
2022/10/30 11:12:25;;;;;;;8.90;1.70;;;;;;;;;;5047370;28;20258;-62
2022/10/30 11:14:51;;;;;;;0.93;0.67;;;;;;;;;;5046982;28;20266;-62
2022/10/30 11:17:41;;;;;;;0.77;0.73;;;;;;;;;;5047198;28;20289;-62
2022/10/30 11:20:26;;;;;;;1.53;0.80;;;;;;;;;;5052623;28;20277;-62
2022/10/30 11:22:53;;;;;;;1.60;1.10;;;;;;;;;;5052503;28;20279;-62
2022/10/30 11:25:24;;;;;;;2.87;0.97;;;;;;;;;;5052143;28;20078;-63
2022/10/30 11:27:58;;;;;;;0.73;0.73;;;;;;;;;;5052328;28;20277;-62
2022/10/30 11:30:27;;;;;;;0.87;0.80;;;;;;;;;;5049900;28;20365;-62
2022/10/30 11:32:54;;;;;;;2.63;0.80;;;;;;;;;;5046915;28;20262;-62
2022/10/30 11:35:21;;;;;;;1.37;1.07;;;;;;;;;;5046935;28;20360;-62
2022/10/30 11:37:49;;;;;;;2.43;0.60;;;;;;;;;;5046960;28;20082;-62
2022/10/30 11:40:20;;;;;;;2.13;1.43;;;;;;;;;;5047888;28;20357;-62
2022/10/30 11:42:56;;;;;;;1.20;0.90;;;;;;;;;;5052484;28;20261;-62
2022/10/30 11:45:26;;;;;;;1.20;1.00;;;;;;;;;;5052156;28;20308;-62
2022/10/30 11:47:53;;;;;;;1.80;1.47;;;;;;;;;;5051820;28;20741;-62
2022/10/30 11:50:22;;;;;;;1.70;1.47;;;;;;;;;;5052324;28;20250;-62
2022/10/30 11:52:50;;;;;;;0.60;0.50;;;;;;;;;;5049428;28;20305;-62
2022/10/30 11:55:19;;;;;;;1.03;0.93;;;;;;;;;;5046856;28;20112;-62
2022/10/30 11:57:50;;;;;;;2.63;1.80;;;;;;;;;;5046332;28;20618;-62
2022/10/30 12:00:20;;;;;;;0.80;0.80;;;;;;;;;;5046781;28;20262;-62
2022/10/30 12:02:50;;;;;;;1.63;1.00;;;;;;;;;;5048825;28;20254;-62
2022/10/30 12:05:25;;;;;;;1.40;1.10;;;;;;;;;;5054054;28;20270;-63
2022/10/30 12:07:53;;;;;;;0.60;0.50;;;;;;;;;;5056246;28;20265;-62
2022/10/30 12:10:30;;;;;;;1.40;1.07;;;;;;;;;;5056028;28;20586;-62
2022/10/30 12:12:56;;;;;;;1.07;0.97;;;;;;;;;;5055982;28;20392;-62
2022/10/30 12:15:26;;;;;;;1.33;1.00;;;;;;;;;;5052543;28;20637;-62
2022/10/30 12:17:54;;;;;;;1.13;1.03;;;;;;;;;;5050467;28;20814;-62
2022/10/30 12:20:21;;;;;;;1.73;1.50;;;;;;;;;;5050507;28;20752;-62
2022/10/30 12:22:48;;;;;;;1.27;1.10;;;;;;;;;;5050565;28;20250;-62
2022/10/30 12:25:19;;;;;;;2.50;1.70;;;;;;;;;;5053098;28;20307;-62
2022/10/30 12:27:46;;;;;;;1.10;0.90;;;;;;;;;;5055194;28;20268;-62
2022/10/30 12:30:13;;;;;;;1.17;1.00;;;;;;;;;;5055171;28;20266;-62
2022/10/30 12:32:49;;;;;;;3.30;1.50;;;;;;;;;;5055779;28;20824;-62
2022/10/30 12:35:36;;;;;;;2.00;0.97;;;;;;;;;;5055513;28;20763;-62
2022/10/30 12:38:03;;;;;;;1.17;1.00;;;;;;;;;;5051346;28;20286;-62
2022/10/30 12:40:31;;;;;;;2.70;1.20;;;;;;;;;;5049531;28;20356;-62
2022/10/30 12:42:57;;;;;;;1.80;1.40;;;;;;;;;;5050242;28;20338;-62
2022/10/30 12:45:26;;;;;;;2.27;1.87;;;;;;;;;;5050060;28;20760;-62
2022/10/30 12:48:03;;;;;;;1.57;1.43;;;;;;;;;;5053465;28;20273;-62
2022/10/30 12:50:49;;;;;;;2.03;1.53;;;;;;;;;;5055341;28;20286;-62
2022/10/30 12:53:21;;;;;;;2.13;1.73;;;;;;;;;;5035115;28;20269;-62
2022/10/30 12:55:54;;;;;;;2.47;1.20;;;;;;;;;;5035410;28;20033;-62
2022/10/30 12:58:33;;;;;;;1.97;1.60;;;;;;;;;;5035287;28;20286;-62
2022/10/30 13:01:22;;;;;;;2.97;2.03;;;;;;;;;;5029558;28;20279;-63
2022/10/30 13:04:09;;;;;;;1.77;1.13;;;;;;;;;;5040563;28;20748;-62
2022/10/30 13:06:51;;;;;;;1.53;1.40;;;;;;;;;;5038866;28;20270;-62
2022/10/30 13:09:18;;;;;;;1.50;1.40;;;;;;;;;;5051271;28;20473;-62
2022/10/30 13:11:44;;;;;;;2.60;1.10;;;;;;;;;;5055029;28;20029;-62
2022/10/30 13:14:14;;;;;;;1.70;1.50;;;;;;;;;;5055008;28;20025;-62
2022/10/30 13:16:41;;;;;;;2.30;1.93;;;;;;;;;;5053831;28;20270;-63
2022/10/30 13:19:11;;;;;;;7.73;2.03;;;;;;;;;;5054406;28;20026;-62
2022/10/30 13:21:38;;;;;;;2.97;1.30;;;;;;;;;;5051999;28;20033;-63
2022/10/30 13:24:23;;;;;;;1.17;1.03;;;;;;;;;;5049365;28;20527;-63
2022/10/30 13:26:56;;;;;;;4.00;2.10;;;;;;;;;;5048263;28;20163;-62
2022/10/30 13:29:31;;;;;;;2.00;1.43;;;;;;;;;;5049063;28;20017;-62
2022/10/30 13:32:16;;;;;;;1.67;1.03;;;;;;;;;;5051823;28;20021;-62
2022/10/30 13:35:01;;;;;;;2.33;1.40;;;;;;;;;;5054097;28;20094;-63
2022/10/30 13:37:35;;;;;;;2.67;1.48;;;;;;;;;;5053167;28;20025;-62
2022/10/30 13:40:23;;;;;;;1.20;1.00;;;;;;;;;;5053981;28;20029;-63
2022/10/30 13:42:58;;;;;;;0.80;0.77;;;;;;;;;;5050460;28;20025;-62
2022/10/30 13:45:24;;;;;;;;;;;;;;;;;;5048114;28;20044;-63
2022/10/30 13:47:51;;;;;;;2.40;1.50;;;;;;;;;;5048570;28;19913;-64
2022/10/30 13:50:23;;;;;;;1.13;0.80;;;;;;;;;;5048231;28;20033;-63
2022/10/30 13:52:54;;;;;;;1.47;0.93;;;;;;;;;;5045732;28;20044;-64
2022/10/30 13:55:24;;;;;;;2.47;1.97;;;;;;;;;;5054221;28;20100;-62
2022/10/30 13:57:57;;;;;;;2.90;1.57;;;;;;;;;;5052849;28;20553;-63
2022/10/30 14:00:44;;;;;;;1.63;1.20;;;;;;;;;;5053809;28;20495;-63
2022/10/30 14:03:27;;;;;;;3.63;2.10;;;;;;;;;;5043660;28;20043;-63
2022/10/30 14:06:09;;;;;;;2.57;1.97;;;;;;;;;;5051899;28;20013;-64
2022/10/30 14:08:38;;;;;;;2.60;1.87;;;;;;;;;;5048596;28;20534;-63
2022/10/30 14:11:06;;;;;;;3.20;1.87;;;;;;;;;;5048476;28;20051;-63
2022/10/30 14:13:35;;;;;;;1.80;1.40;;;;;;;;;;5048622;28;20021;-63
2022/10/30 14:16:04;;;;;;;2.03;1.70;;;;;;;;;;5049680;28;20021;-63
2022/10/30 14:18:31;;;;;;;2.77;1.83;;;;;;;;;;5053413;28;20029;-63
2022/10/30 14:20:58;;;;;;;3.73;2.63;;;;;;;;;;5053487;28;20045;-63
2022/10/30 14:23:27;;;;;;;4.50;2.10;;;;;;;;;;5053303;28;20025;-63
2022/10/30 14:26:06;;;;;;;6.70;2.20;;;;;;;;;;5053570;28;20024;-63
2022/10/30 14:28:34;;;;;;;4.23;2.27;;;;;;;;;;5049841;28;20468;-64
2022/10/30 14:31:09;;;;;;;2.03;1.47;;;;;;;;;;5047920;28;20112;-63
2022/10/30 14:33:50;;;;;;;5.93;2.33;;;;;;;;;;5047739;28;20042;-63
2022/10/30 14:36:16;;;;;;;4.00;2.33;;;;;;;;;;5051718;28;20033;-65
2022/10/30 14:38:54;;;;;;;14.50;2.13;;;;;;;;;;5050886;28;20035;-65
2022/10/30 14:41:39;;;;;;;2.43;1.60;;;;;;;;;;5053378;28;20017;-65
2022/10/30 14:44:25;;;;;;;3.67;2.58;;;;;;;;;;5053258;28;20032;-65
2022/10/30 14:46:51;;;;;;;;;;;;;;;;;;5053096;28;20103;-65
2022/10/30 14:49:24;;;;;;;4.07;2.47;;;;;;;;;;5053488;28;20462;-63
2022/10/30 14:52:00;;;;;;;2.87;2.33;;;;;;;;;;5048151;28;20033;-63
2022/10/30 14:54:32;;;;;;;3.67;1.90;;;;;;;;;;5048084;28;20032;-63
2022/10/30 14:56:58;;;;;;;27.83;2.73;;;;;;;;;;5047505;28;20037;-63